Greenville Spartanburg International Airport
KGSP : now visible

Airfield :











YOU CAN JOIN US ON...

 
LOGIN :

Register | Disclaimer

   EN    FR    IT 

 









Legend :    VFR   Marginal VFR   IFR   Intensive IFR   Very Intensive IFR
Visi :
Ceiling :
>= 8 km
>= 3000ft
5 to 8 km
1000 to 3000 ft
1500m to 5 km
500 to 1000 ft
800 to 1500m
200 to 500 ft
< 800m
< 200 ft
Symbols :   Thunderstorms  Fog  Heavy snow  Heavy precipitations  Wind > 20 kt







- Airport Elevation : 964 ft
- IATA code : GSP


KGSP - Greenville Spartanburg International

CURRENT METAR :
  • 202153Z 23009KT 10SM SCT027 BKN035 OVC100 10/06 A2977 RMK AO2 RAE2056 SLP080 P0000 T01000056

EXPIRED METARs :
  • 202151Z 23011KT 10SM SCT027 OVC035 10/06 A2977 RMK AO2 RAE2056 P0000
  • 202137Z 23010KT 10SM BKN027 BKN032 OVC110 10/05 A2976 RMK AO2 RAE2056 P0000 T01000050
  • 202100Z 24012G21KT 10SM BKN047 OVC060 10/05 A2975 RMK AO2 RAE2056 P0000 T01000050
  • 201953Z 21016G20KT 10SM FEW021 BKN026 OVC050 10/06 A2974 RMK AO2 RAB20E33 SLP067 P0001 T01000056

TAF KGSP
Valid from the 20 at 18:00 until the 21 at 18:00 UTC


201739Z 2018/2118 22013G20KT P6SM -SHRA BKN035
TEMPO 2018/2021 4SM RA SCT015 OVC025
FM202200 23013KT P6SM BKN045
FM210100 24007KT P6SM SCT060 BKN090
FM211100 30003KT P6SM FEW250
KZTL FIR / North America



MET'MAP, your aeronautical weather chart ! - Copyright ORBIFLY December 2007 - Disclaimer

ORBIFLY MET'MAP TEAM :

Programming & Development : Alexandra Zaïnal
Concept & Development : Baudouin d'Aumeries
Co-Development & Prog : Marc-Olivier Méhu
Technical & hardware support : Manuel Goepfert

Contact : metmap@orbifly.com




SOURCES & CREDITS :

   NOAA       Earth
Advisory